SUMZM LGIR-EPPO
Flight info
| Callsign | SUMZM |
|---|---|
| Flight time | N/A |
| Altitude | 26000 |
| Route | EPALO M749 DIRMI UM749 MIL/N0197F240 M749 ATV/N0196F260 UM749 SKP UL617 TSL/N0195F280 UL617 MAKED L617 RAXAD DCT PARAK DCT BILNA DCT REGLI Z159 NILPU |
| Aircraft | PC12/L-SDFGRWY/S |
Departure
| Time | 2026-04-28 16:06 |
|---|---|
| Airport | Heraklion International Nikos Kazantzakis Airport (LGIR) |
Arrival
| Time | N/A |
|---|---|
| Airport | Poznań-Ławica Airport (EPPO) |
| Time | Latitude | Longitude | Altitude | Speed | Heading |
|---|---|---|---|---|---|
| 2026-04-28 15:35 | 35.33747 | 25.18711 | 87 ft | 0 kts | 185° |
| 2026-04-28 15:59 | 35.33737 | 25.18710 | 89 ft | 4 kts | 185° |
| 2026-04-28 16:00 | 35.33716 | 25.18722 | 87 ft | 6 kts | 123° |
| 2026-04-28 16:00 | 35.33685 | 25.18790 | 88 ft | 8 kts | 121° |
| 2026-04-28 16:00 | 35.33649 | 25.18798 | 87 ft | 6 kts | 216° |
| 2026-04-28 16:00 | 35.33622 | 25.18777 | 89 ft | 4 kts | 211° |
| 2026-04-28 16:01 | 35.33615 | 25.18772 | 88 ft | 0 kts | 212° |
| 2026-04-28 16:02 | 35.33607 | 25.18765 | 88 ft | 6 kts | 212° |
| 2026-04-28 16:02 | 35.33567 | 25.18705 | 87 ft | 8 kts | 264° |
| 2026-04-28 16:02 | 35.33589 | 25.18663 | 87 ft | 3 kts | 301° |
| 2026-04-28 16:03 | 35.33598 | 25.18646 | 86 ft | 0 kts | 305° |
| 2026-04-28 16:04 | 35.33599 | 25.18645 | 86 ft | 0 kts | 305° |
| 2026-04-28 16:05 | 35.33690 | 25.18493 | 90 ft | 51 kts | 306° |
| 2026-04-28 16:05 | 35.34000 | 25.17976 | 89 ft | 95 kts | 307° |
| 2026-04-28 16:05 | 35.34437 | 25.17272 | 269 ft | 109 kts | 308° |
| 2026-04-28 16:06 | 35.34966 | 25.16531 | 542 ft | 123 kts | 314° |
| 2026-04-28 16:06 | 35.35603 | 25.15801 | 894 ft | 131 kts | 319° |
| 2026-04-28 16:06 | 35.36323 | 25.14974 | 999 ft | 155 kts | 304° |
| 2026-04-28 16:06 | 35.36757 | 25.13747 | 1295 ft | 156 kts | 297° |
| 2026-04-28 16:07 | 35.37360 | 25.12630 | 1653 ft | 160 kts | 306° |
| 2026-04-28 16:07 | 35.38056 | 25.11531 | 2032 ft | 167 kts | 307° |
| 2026-04-28 16:07 | 35.39548 | 25.09225 | 2781 ft | 179 kts | 308° |
| 2026-04-28 16:08 | 35.40329 | 25.08017 | 3157 ft | 183 kts | 308° |
| 2026-04-28 16:08 | 35.41130 | 25.06775 | 3534 ft | 187 kts | 308° |
| 2026-04-28 16:08 | 35.41949 | 25.05505 | 3914 ft | 189 kts | 308° |
| 2026-04-28 16:09 | 35.42918 | 25.04002 | 4353 ft | 191 kts | 308° |
| 2026-04-28 16:09 | 35.43745 | 25.02719 | 4732 ft | 193 kts | 308° |
| 2026-04-28 16:09 | 35.44686 | 25.01563 | 5105 ft | 193 kts | 329° |
| 2026-04-28 16:10 | 35.47257 | 25.01868 | 5873 ft | 197 kts | 26° |
| 2026-04-28 16:10 | 35.48486 | 25.02633 | 6247 ft | 200 kts | 26° |
| 2026-04-28 16:10 | 35.51050 | 25.04049 | 6998 ft | 204 kts | 23° |
| 2026-04-28 16:11 | 35.53671 | 25.05473 | 7748 ft | 206 kts | 24° |
| 2026-04-28 16:11 | 35.56294 | 25.06897 | 8495 ft | 207 kts | 21° |
| 2026-04-28 16:12 | 35.59100 | 25.06902 | 9243 ft | 205 kts | 339° |
| 2026-04-28 16:12 | 35.60430 | 25.06269 | 9624 ft | 205 kts | 338° |
| 2026-04-28 16:13 | 35.63105 | 25.05014 | 10376 ft | 207 kts | 338° |
| 2026-04-28 16:13 | 35.64460 | 25.04375 | 10751 ft | 208 kts | 338° |
| 2026-04-28 16:13 | 35.67163 | 25.03098 | 11499 ft | 209 kts | 338° |
| 2026-04-28 16:14 | 35.69869 | 25.01820 | 12245 ft | 210 kts | 338° |
| 2026-04-28 16:14 | 35.72603 | 25.00530 | 12995 ft | 210 kts | 338° |
| 2026-04-28 16:15 | 35.75329 | 24.99251 | 13742 ft | 211 kts | 338° |
| 2026-04-28 16:15 | 35.76694 | 24.98610 | 14115 ft | 211 kts | 338° |
| 2026-04-28 16:15 | 35.78052 | 24.97972 | 14486 ft | 211 kts | 338° |
| 2026-04-28 16:16 | 35.80794 | 24.96682 | 15235 ft | 211 kts | 338° |
| 2026-04-28 16:16 | 35.82162 | 24.96038 | 15608 ft | 211 kts | 338° |
| 2026-04-28 16:17 | 35.84903 | 24.94748 | 16362 ft | 211 kts | 338° |
| 2026-04-28 16:17 | 35.86275 | 24.94101 | 16733 ft | 211 kts | 338° |
| 2026-04-28 16:17 | 35.87646 | 24.93456 | 17108 ft | 211 kts | 338° |
| 2026-04-28 16:17 | 35.89014 | 24.92810 | 17481 ft | 211 kts | 338° |
| 2026-04-28 16:18 | 35.90386 | 24.92163 | 17856 ft | 210 kts | 338° |
| 2026-04-28 16:18 | 35.91754 | 24.91518 | 18230 ft | 210 kts | 338° |
| 2026-04-28 16:18 | 35.93117 | 24.90874 | 18604 ft | 210 kts | 338° |
| 2026-04-28 16:18 | 35.94469 | 24.90236 | 18970 ft | 210 kts | 338° |
| 2026-04-28 16:19 | 35.95830 | 24.89593 | 19348 ft | 210 kts | 338° |
| 2026-04-28 16:19 | 35.97216 | 24.88939 | 19727 ft | 210 kts | 338° |
| 2026-04-28 16:19 | 35.98565 | 24.88301 | 20096 ft | 210 kts | 338° |
| 2026-04-28 16:19 | 35.99923 | 24.87659 | 20471 ft | 210 kts | 338° |
| 2026-04-28 16:20 | 36.01290 | 24.87012 | 20846 ft | 209 kts | 338° |
| 2026-04-28 16:20 | 36.02637 | 24.86376 | 21217 ft | 204 kts | 338° |
| 2026-04-28 16:20 | 36.03932 | 24.85764 | 21584 ft | 196 kts | 338° |
| 2026-04-28 16:20 | 36.05195 | 24.85165 | 21955 ft | 194 kts | 338° |
| 2026-04-28 16:21 | 36.06450 | 24.84569 | 22329 ft | 193 kts | 338° |
| 2026-04-28 16:21 | 36.07704 | 24.83976 | 22703 ft | 192 kts | 338° |
| 2026-04-28 16:21 | 36.08953 | 24.83385 | 23077 ft | 191 kts | 338° |
| 2026-04-28 16:21 | 36.10193 | 24.82797 | 23458 ft | 191 kts | 338° |
| 2026-04-28 16:22 | 36.11416 | 24.82218 | 23820 ft | 190 kts | 338° |
| 2026-04-28 16:22 | 36.12661 | 24.81628 | 24197 ft | 189 kts | 338° |
| 2026-04-28 16:22 | 36.13894 | 24.81044 | 24568 ft | 189 kts | 338° |
| 2026-04-28 16:22 | 36.15113 | 24.80465 | 24945 ft | 188 kts | 338° |
| 2026-04-28 16:23 | 36.16320 | 24.79893 | 25315 ft | 187 kts | 338° |
| 2026-04-28 16:23 | 36.17525 | 24.79320 | 25682 ft | 186 kts | 338° |
| 2026-04-28 16:23 | 36.18751 | 24.78739 | 25967 ft | 191 kts | 338° |
| 2026-04-28 16:23 | 36.20049 | 24.78123 | 26003 ft | 208 kts | 339° |
| 2026-04-28 16:24 | 36.21450 | 24.77460 | 26008 ft | 222 kts | 339° |
| 2026-04-28 16:24 | 36.22931 | 24.76758 | 26011 ft | 234 kts | 339° |
| 2026-04-28 16:24 | 36.24486 | 24.76020 | 26007 ft | 243 kts | 339° |
| 2026-04-28 16:24 | 36.26091 | 24.75258 | 26008 ft | 250 kts | 339° |
| 2026-04-28 16:25 | 36.27740 | 24.74473 | 26007 ft | 255 kts | 339° |
| 2026-04-28 16:25 | 36.29367 | 24.73700 | 26005 ft | 251 kts | 339° |
| 2026-04-28 16:25 | 36.30983 | 24.72932 | 26001 ft | 246 kts | 339° |
| 2026-04-28 16:25 | 36.32575 | 24.72172 | 25998 ft | 242 kts | 339° |
| 2026-04-28 16:26 | 36.34131 | 24.71430 | 25996 ft | 239 kts | 339° |
| 2026-04-28 16:26 | 36.35679 | 24.70691 | 25994 ft | 236 kts | 339° |
| 2026-04-28 16:26 | 36.37201 | 24.69965 | 25993 ft | 234 kts | 339° |
| 2026-04-28 16:26 | 36.38717 | 24.69241 | 25991 ft | 232 kts | 339° |
| 2026-04-28 16:27 | 36.40204 | 24.68531 | 25990 ft | 231 kts | 339° |
| 2026-04-28 16:27 | 36.41717 | 24.67808 | 25992 ft | 229 kts | 339° |
| 2026-04-28 16:27 | 36.44686 | 24.66388 | 25991 ft | 228 kts | 339° |
| 2026-04-28 16:28 | 36.46142 | 24.65691 | 25990 ft | 227 kts | 339° |
| 2026-04-28 16:28 | 36.47611 | 24.64988 | 25992 ft | 226 kts | 339° |
| 2026-04-28 16:28 | 36.49082 | 24.64284 | 25992 ft | 226 kts | 339° |
| 2026-04-28 16:28 | 36.50548 | 24.63582 | 25991 ft | 226 kts | 339° |
| 2026-04-28 16:29 | 36.53475 | 24.62179 | 25991 ft | 225 kts | 339° |
| 2026-04-28 16:29 | 36.56393 | 24.60780 | 25990 ft | 225 kts | 339° |
| 2026-04-28 16:30 | 36.57853 | 24.60079 | 25990 ft | 224 kts | 339° |
| 2026-04-28 16:30 | 36.59307 | 24.59381 | 25990 ft | 224 kts | 338° |
| 2026-04-28 16:30 | 36.60770 | 24.58678 | 25990 ft | 224 kts | 338° |
| 2026-04-28 16:30 | 36.62217 | 24.57983 | 25992 ft | 224 kts | 338° |
| 2026-04-28 16:31 | 36.63670 | 24.57284 | 25992 ft | 224 kts | 338° |
| 2026-04-28 16:31 | 36.65127 | 24.56584 | 25992 ft | 224 kts | 338° |
| 2026-04-28 16:31 | 36.66583 | 24.55884 | 25992 ft | 224 kts | 338° |
| 2026-04-28 16:31 | 36.68032 | 24.55186 | 25991 ft | 224 kts | 338° |
| 2026-04-28 16:32 | 36.69462 | 24.54497 | 25992 ft | 223 kts | 339° |
| 2026-04-28 16:32 | 36.72388 | 24.53086 | 25993 ft | 224 kts | 338° |
| 2026-04-28 16:32 | 36.73826 | 24.52393 | 25993 ft | 224 kts | 338° |
| 2026-04-28 16:33 | 36.75258 | 24.51640 | 25991 ft | 223 kts | 332° |
| 2026-04-28 16:33 | 36.76190 | 24.51051 | 25994 ft | 223 kts | 332° |
| 2026-04-28 16:33 | 36.78036 | 24.49912 | 25992 ft | 223 kts | 333° |
| 2026-04-28 16:33 | 36.79427 | 24.49059 | 25992 ft | 223 kts | 333° |
| 2026-04-28 16:34 | 36.80819 | 24.48201 | 25993 ft | 223 kts | 333° |
| 2026-04-28 16:34 | 36.82214 | 24.47338 | 25993 ft | 224 kts | 333° |
| 2026-04-28 16:34 | 36.83617 | 24.46472 | 25993 ft | 224 kts | 333° |
| 2026-04-28 16:34 | 36.85011 | 24.45611 | 25993 ft | 224 kts | 333° |
| 2026-04-28 16:35 | 36.86414 | 24.44744 | 25993 ft | 225 kts | 333° |
| 2026-04-28 16:35 | 36.87820 | 24.43875 | 25993 ft | 225 kts | 333° |
| 2026-04-28 16:35 | 36.89205 | 24.43019 | 25993 ft | 225 kts | 333° |
| 2026-04-28 16:35 | 36.90608 | 24.42151 | 25993 ft | 225 kts | 333° |
| 2026-04-28 16:36 | 36.92010 | 24.41283 | 25993 ft | 225 kts | 333° |
| 2026-04-28 16:36 | 36.93414 | 24.40413 | 25993 ft | 225 kts | 333° |
| 2026-04-28 16:36 | 36.94821 | 24.39542 | 25993 ft | 225 kts | 333° |
| 2026-04-28 16:36 | 36.96221 | 24.38674 | 25993 ft | 225 kts | 333° |
| 2026-04-28 16:37 | 36.97630 | 24.37801 | 25993 ft | 225 kts | 333° |
| 2026-04-28 16:37 | 36.99036 | 24.36929 | 25993 ft | 225 kts | 333° |
| 2026-04-28 16:37 | 37.00440 | 24.36058 | 25993 ft | 225 kts | 333° |
| 2026-04-28 16:38 | 37.03250 | 24.34313 | 25993 ft | 225 kts | 333° |
| 2026-04-28 16:38 | 37.04652 | 24.33442 | 25993 ft | 225 kts | 333° |
| 2026-04-28 16:38 | 37.06057 | 24.32568 | 25993 ft | 225 kts | 333° |
| 2026-04-28 16:38 | 37.07463 | 24.31694 | 25993 ft | 225 kts | 333° |
| 2026-04-28 16:39 | 37.08849 | 24.30832 | 25993 ft | 225 kts | 333° |
| 2026-04-28 16:39 | 37.10247 | 24.29962 | 25993 ft | 225 kts | 333° |
| 2026-04-28 16:39 | 37.11649 | 24.29089 | 25993 ft | 225 kts | 333° |
| 2026-04-28 16:39 | 37.13049 | 24.28217 | 25993 ft | 225 kts | 333° |
| 2026-04-28 16:40 | 37.14451 | 24.27344 | 25993 ft | 225 kts | 333° |
| 2026-04-28 16:40 | 37.15851 | 24.26471 | 25993 ft | 225 kts | 333° |
| 2026-04-28 16:40 | 37.17249 | 24.25599 | 25993 ft | 225 kts | 333° |
| 2026-04-28 16:40 | 37.18655 | 24.24722 | 25992 ft | 225 kts | 333° |
| 2026-04-28 16:41 | 37.20054 | 24.23849 | 25992 ft | 224 kts | 333° |
| 2026-04-28 16:41 | 37.21453 | 24.22975 | 25992 ft | 224 kts | 333° |
| 2026-04-28 16:41 | 37.22853 | 24.22101 | 25992 ft | 224 kts | 333° |
| 2026-04-28 16:41 | 37.24248 | 24.21229 | 25992 ft | 224 kts | 333° |
| 2026-04-28 16:42 | 37.25631 | 24.20365 | 25992 ft | 224 kts | 333° |
| 2026-04-28 16:42 | 37.27029 | 24.19490 | 25992 ft | 224 kts | 333° |
| 2026-04-28 16:42 | 37.28420 | 24.18620 | 25992 ft | 224 kts | 333° |
| 2026-04-28 16:42 | 37.29818 | 24.17745 | 25992 ft | 224 kts | 333° |
| 2026-04-28 16:43 | 37.31222 | 24.16866 | 25992 ft | 224 kts | 333° |
| 2026-04-28 16:43 | 37.32615 | 24.15993 | 25992 ft | 224 kts | 333° |
| 2026-04-28 16:43 | 37.34012 | 24.15118 | 25992 ft | 224 kts | 333° |
| 2026-04-28 16:43 | 37.35415 | 24.14238 | 25992 ft | 224 kts | 333° |
| 2026-04-28 16:44 | 37.36800 | 24.13369 | 25992 ft | 224 kts | 333° |
| 2026-04-28 16:44 | 37.38200 | 24.12491 | 25992 ft | 224 kts | 333° |
| 2026-04-28 16:44 | 37.39597 | 24.11614 | 25992 ft | 225 kts | 333° |
| 2026-04-28 16:44 | 37.40996 | 24.10735 | 25992 ft | 225 kts | 333° |
| 2026-04-28 16:45 | 37.42396 | 24.09855 | 25992 ft | 225 kts | 333° |
| 2026-04-28 16:45 | 37.43796 | 24.08975 | 25992 ft | 225 kts | 333° |
| 2026-04-28 16:45 | 37.45178 | 24.08107 | 25992 ft | 225 kts | 333° |
| 2026-04-28 16:45 | 37.46575 | 24.07228 | 25992 ft | 225 kts | 333° |
| 2026-04-28 16:46 | 37.47971 | 24.06349 | 25992 ft | 225 kts | 333° |
| 2026-04-28 16:46 | 37.49371 | 24.05467 | 25992 ft | 225 kts | 333° |
| 2026-04-28 16:46 | 37.50771 | 24.04585 | 25992 ft | 225 kts | 333° |
| 2026-04-28 16:46 | 37.52168 | 24.03705 | 25992 ft | 225 kts | 333° |
| 2026-04-28 16:47 | 37.53568 | 24.02823 | 25992 ft | 225 kts | 333° |
| 2026-04-28 16:47 | 37.54958 | 24.01946 | 25991 ft | 225 kts | 333° |
| 2026-04-28 16:47 | 37.56362 | 24.01060 | 25991 ft | 225 kts | 333° |
| 2026-04-28 16:47 | 37.57760 | 24.00178 | 25991 ft | 224 kts | 333° |
| 2026-04-28 16:48 | 37.59155 | 23.99297 | 25991 ft | 224 kts | 333° |
| 2026-04-28 16:48 | 37.60555 | 23.98412 | 25991 ft | 224 kts | 333° |
| 2026-04-28 16:48 | 37.61948 | 23.97532 | 25991 ft | 224 kts | 332° |
| 2026-04-28 16:48 | 37.63342 | 23.96650 | 25991 ft | 224 kts | 332° |
| 2026-04-28 16:49 | 37.64724 | 23.95776 | 25994 ft | 225 kts | 332° |
| 2026-04-28 16:49 | 37.66120 | 23.94893 | 25991 ft | 225 kts | 333° |
| 2026-04-28 16:49 | 37.67521 | 23.94007 | 25994 ft | 225 kts | 333° |
| 2026-04-28 16:49 | 37.68926 | 23.93117 | 25992 ft | 225 kts | 333° |
| 2026-04-28 16:50 | 37.70328 | 23.92228 | 25991 ft | 225 kts | 332° |
| 2026-04-28 16:50 | 37.71727 | 23.91342 | 25991 ft | 225 kts | 332° |
| 2026-04-28 16:50 | 37.73122 | 23.90457 | 25994 ft | 225 kts | 332° |
| 2026-04-28 16:50 | 37.74529 | 23.89565 | 25992 ft | 225 kts | 333° |
| 2026-04-28 16:51 | 37.75926 | 23.88678 | 25991 ft | 225 kts | 332° |
| 2026-04-28 16:51 | 37.76855 | 23.88088 | 25991 ft | 225 kts | 332° |
| 2026-04-28 16:51 | 37.78251 | 23.87202 | 25991 ft | 225 kts | 332° |
| 2026-04-28 16:51 | 37.79651 | 23.86312 | 25991 ft | 225 kts | 332° |
| 2026-04-28 16:52 | 37.81052 | 23.85421 | 25994 ft | 225 kts | 332° |
| 2026-04-28 16:52 | 37.82453 | 23.84531 | 25992 ft | 225 kts | 332° |
| 2026-04-28 16:52 | 37.83854 | 23.83639 | 25992 ft | 225 kts | 332° |
| 2026-04-28 16:52 | 37.85256 | 23.82747 | 25992 ft | 225 kts | 332° |
| 2026-04-28 16:53 | 37.86655 | 23.81856 | 25992 ft | 225 kts | 332° |
| 2026-04-28 16:53 | 37.88054 | 23.80965 | 25993 ft | 225 kts | 333° |
| 2026-04-28 16:53 | 37.89537 | 23.80344 | 25994 ft | 225 kts | 351° |
| 2026-04-28 16:53 | 37.91102 | 23.80121 | 25998 ft | 225 kts | 353° |
| 2026-04-28 16:54 | 37.92665 | 23.79900 | 25998 ft | 226 kts | 353° |
| 2026-04-28 16:54 | 37.94206 | 23.79677 | 26000 ft | 226 kts | 353° |
| 2026-04-28 16:54 | 37.95776 | 23.79450 | 25999 ft | 226 kts | 353° |
| 2026-04-28 16:54 | 37.97340 | 23.79225 | 26000 ft | 226 kts | 353° |
| 2026-04-28 16:55 | 37.98903 | 23.79000 | 25999 ft | 227 kts | 353° |
| 2026-04-28 16:55 | 38.00470 | 23.78774 | 25999 ft | 227 kts | 353° |
| 2026-04-28 16:55 | 38.02040 | 23.78547 | 25998 ft | 227 kts | 353° |
| 2026-04-28 16:55 | 38.03610 | 23.78321 | 25999 ft | 226 kts | 353° |
| 2026-04-28 16:56 | 38.05175 | 23.78095 | 25999 ft | 226 kts | 353° |
| 2026-04-28 16:56 | 38.06741 | 23.77869 | 25999 ft | 227 kts | 353° |
| 2026-04-28 16:56 | 38.08310 | 23.77642 | 25998 ft | 227 kts | 353° |
| 2026-04-28 16:56 | 38.09876 | 23.77416 | 25998 ft | 227 kts | 353° |
| 2026-04-28 16:57 | 38.11435 | 23.77190 | 25998 ft | 226 kts | 353° |
| 2026-04-28 16:57 | 38.13000 | 23.76964 | 25999 ft | 226 kts | 353° |
| 2026-04-28 16:57 | 38.14571 | 23.76736 | 25998 ft | 226 kts | 353° |
| 2026-04-28 16:57 | 38.16132 | 23.76510 | 25997 ft | 226 kts | 353° |
| 2026-04-28 16:58 | 38.17696 | 23.76284 | 25998 ft | 226 kts | 353° |
| 2026-04-28 16:58 | 38.19261 | 23.76058 | 25997 ft | 226 kts | 353° |
| 2026-04-28 16:58 | 38.20826 | 23.75832 | 25998 ft | 226 kts | 353° |
| 2026-04-28 16:58 | 38.22387 | 23.75606 | 25998 ft | 226 kts | 353° |
| 2026-04-28 16:59 | 38.23958 | 23.75379 | 25998 ft | 226 kts | 353° |
| 2026-04-28 16:59 | 38.25524 | 23.75153 | 25998 ft | 227 kts | 353° |
| 2026-04-28 16:59 | 38.27074 | 23.74929 | 25997 ft | 226 kts | 353° |
| 2026-04-28 16:59 | 38.28660 | 23.74699 | 25998 ft | 227 kts | 353° |
| 2026-04-28 17:00 | 38.30205 | 23.74475 | 25998 ft | 226 kts | 353° |
| 2026-04-28 17:00 | 38.31769 | 23.74249 | 25998 ft | 226 kts | 353° |
| 2026-04-28 17:00 | 38.33360 | 23.74018 | 25998 ft | 226 kts | 353° |
| 2026-04-28 17:00 | 38.34905 | 23.73794 | 25997 ft | 226 kts | 353° |
| 2026-04-28 17:01 | 38.36468 | 23.73567 | 25997 ft | 226 kts | 353° |
| 2026-04-28 17:01 | 38.38028 | 23.73341 | 25997 ft | 226 kts | 353° |
| 2026-04-28 17:01 | 38.39594 | 23.73113 | 25997 ft | 226 kts | 353° |
| 2026-04-28 17:01 | 38.41155 | 23.72887 | 25998 ft | 226 kts | 353° |
| 2026-04-28 17:02 | 38.42719 | 23.72659 | 25998 ft | 226 kts | 353° |
| 2026-04-28 17:02 | 38.44288 | 23.72431 | 25998 ft | 226 kts | 353° |
| 2026-04-28 17:02 | 38.45855 | 23.72203 | 25998 ft | 226 kts | 353° |
| 2026-04-28 17:02 | 38.47417 | 23.71976 | 25996 ft | 224 kts | 353° |
| 2026-04-28 17:03 | 38.50435 | 23.71539 | 25991 ft | 211 kts | 353° |
| 2026-04-28 17:03 | 38.51855 | 23.71333 | 25990 ft | 204 kts | 353° |
| 2026-04-28 17:03 | 38.53243 | 23.71130 | 25992 ft | 198 kts | 353° |
| 2026-04-28 17:04 | 38.55904 | 23.70742 | 25991 ft | 187 kts | 353° |
| 2026-04-28 17:04 | 38.57183 | 23.70555 | 25990 ft | 183 kts | 353° |
| 2026-04-28 17:05 | 38.59659 | 23.70193 | 25990 ft | 175 kts | 353° |
| 2026-04-28 17:05 | 38.60859 | 23.70018 | 25991 ft | 172 kts | 353° |
| 2026-04-28 17:05 | 38.62037 | 23.69846 | 25996 ft | 169 kts | 353° |
| 2026-04-28 17:06 | 38.64333 | 23.69510 | 25991 ft | 163 kts | 352° |
| 2026-04-28 17:06 | 38.65474 | 23.69341 | 26004 ft | 169 kts | 352° |
| 2026-04-28 17:06 | 38.67907 | 23.68984 | 26009 ft | 184 kts | 353° |
| 2026-04-28 17:07 | 38.69211 | 23.68794 | 26011 ft | 191 kts | 353° |
| 2026-04-28 17:07 | 38.70558 | 23.68597 | 26010 ft | 198 kts | 353° |
| 2026-04-28 17:07 | 38.71948 | 23.68394 | 26012 ft | 204 kts | 353° |
| 2026-04-28 17:07 | 38.73387 | 23.68183 | 26011 ft | 209 kts | 353° |
| 2026-04-28 17:08 | 38.74842 | 23.67970 | 26010 ft | 213 kts | 353° |
| 2026-04-28 17:08 | 38.76329 | 23.67752 | 26008 ft | 217 kts | 353° |
| 2026-04-28 17:08 | 38.77821 | 23.67534 | 26009 ft | 219 kts | 353° |
| 2026-04-28 17:08 | 38.79348 | 23.67310 | 26008 ft | 221 kts | 353° |
| 2026-04-28 17:09 | 38.80881 | 23.67085 | 26008 ft | 223 kts | 353° |
| 2026-04-28 17:09 | 38.82426 | 23.66858 | 26010 ft | 224 kts | 353° |
| 2026-04-28 17:09 | 38.83973 | 23.66630 | 26009 ft | 224 kts | 353° |
| 2026-04-28 17:09 | 38.85525 | 23.66402 | 26008 ft | 225 kts | 353° |
| 2026-04-28 17:10 | 38.87085 | 23.66173 | 26009 ft | 225 kts | 353° |
| 2026-04-28 17:10 | 38.88636 | 23.65944 | 26009 ft | 225 kts | 353° |
| 2026-04-28 17:10 | 38.90202 | 23.65714 | 26009 ft | 226 kts | 353° |
| 2026-04-28 17:10 | 38.91761 | 23.65484 | 26009 ft | 226 kts | 353° |
| 2026-04-28 17:11 | 38.93322 | 23.65254 | 26009 ft | 226 kts | 353° |
| 2026-04-28 17:11 | 38.94865 | 23.65026 | 26009 ft | 226 kts | 353° |
| 2026-04-28 17:11 | 38.96424 | 23.64796 | 26009 ft | 226 kts | 353° |
| 2026-04-28 17:11 | 38.97989 | 23.64565 | 26009 ft | 226 kts | 353° |
| 2026-04-28 17:12 | 38.99556 | 23.64334 | 26009 ft | 226 kts | 353° |
| 2026-04-28 17:12 | 39.01111 | 23.64104 | 26010 ft | 226 kts | 353° |
| 2026-04-28 17:12 | 39.02669 | 23.63873 | 26009 ft | 226 kts | 353° |
| 2026-04-28 17:12 | 39.04235 | 23.63642 | 26009 ft | 225 kts | 353° |
| 2026-04-28 17:13 | 39.05793 | 23.63411 | 26009 ft | 225 kts | 353° |
| 2026-04-28 17:13 | 39.07354 | 23.63180 | 26010 ft | 225 kts | 353° |
| 2026-04-28 17:13 | 39.08895 | 23.62952 | 26010 ft | 225 kts | 353° |
| 2026-04-28 17:13 | 39.10469 | 23.62718 | 26009 ft | 225 kts | 353° |
| 2026-04-28 17:14 | 39.12026 | 23.62487 | 26006 ft | 225 kts | 353° |
| 2026-04-28 17:14 | 39.13566 | 23.62259 | 26006 ft | 225 kts | 353° |
| 2026-04-28 17:14 | 39.15139 | 23.62025 | 26006 ft | 225 kts | 353° |
| 2026-04-28 17:14 | 39.16676 | 23.61797 | 26008 ft | 225 kts | 353° |
| 2026-04-28 17:15 | 39.18225 | 23.61499 | 26009 ft | 225 kts | 343° |
| 2026-04-28 17:15 | 39.19692 | 23.60805 | 26011 ft | 224 kts | 338° |
| 2026-04-28 17:15 | 39.21155 | 23.60096 | 26008 ft | 225 kts | 339° |
| 2026-04-28 17:15 | 39.22628 | 23.59395 | 26008 ft | 225 kts | 339° |
| 2026-04-28 17:16 | 39.24103 | 23.58689 | 26008 ft | 226 kts | 339° |
| 2026-04-28 17:16 | 39.25576 | 23.57981 | 26008 ft | 226 kts | 339° |
| 2026-04-28 17:16 | 39.27048 | 23.57272 | 26009 ft | 226 kts | 339° |
| 2026-04-28 17:16 | 39.28504 | 23.56572 | 26009 ft | 226 kts | 339° |
| 2026-04-28 17:17 | 39.29982 | 23.55860 | 26008 ft | 226 kts | 339° |
| 2026-04-28 17:17 | 39.31455 | 23.55148 | 26008 ft | 226 kts | 339° |
| 2026-04-28 17:17 | 39.32925 | 23.54437 | 26008 ft | 226 kts | 339° |
| 2026-04-28 17:17 | 39.34397 | 23.53724 | 26008 ft | 226 kts | 339° |
| 2026-04-28 17:18 | 39.35875 | 23.53009 | 26007 ft | 226 kts | 339° |
| 2026-04-28 17:18 | 39.37346 | 23.52297 | 26008 ft | 226 kts | 339° |
| 2026-04-28 17:18 | 39.38819 | 23.51583 | 26007 ft | 226 kts | 339° |
| 2026-04-28 17:18 | 39.40287 | 23.50872 | 26008 ft | 226 kts | 339° |
| 2026-04-28 17:19 | 39.41745 | 23.50165 | 26007 ft | 226 kts | 339° |
| 2026-04-28 17:19 | 39.43214 | 23.49454 | 26007 ft | 226 kts | 339° |
| 2026-04-28 17:19 | 39.44684 | 23.48744 | 26007 ft | 226 kts | 339° |
| 2026-04-28 17:19 | 39.46159 | 23.48031 | 26007 ft | 226 kts | 339° |
| 2026-04-28 17:20 | 39.47629 | 23.47319 | 26007 ft | 226 kts | 339° |
| 2026-04-28 17:20 | 39.48603 | 23.46848 | 26008 ft | 226 kts | 339° |
| 2026-04-28 17:20 | 39.50571 | 23.45894 | 26007 ft | 226 kts | 339° |
| 2026-04-28 17:20 | 39.52029 | 23.45188 | 26007 ft | 226 kts | 339° |
| 2026-04-28 17:21 | 39.53512 | 23.44469 | 26007 ft | 225 kts | 339° |
| 2026-04-28 17:21 | 39.54984 | 23.43755 | 26007 ft | 225 kts | 339° |
| 2026-04-28 17:21 | 39.56450 | 23.43044 | 26007 ft | 225 kts | 339° |
| 2026-04-28 17:22 | 39.59375 | 23.41624 | 26006 ft | 225 kts | 339° |
| 2026-04-28 17:22 | 39.60849 | 23.40907 | 26006 ft | 225 kts | 339° |
| 2026-04-28 17:22 | 39.62314 | 23.40195 | 26006 ft | 225 kts | 339° |
| 2026-04-28 17:23 | 39.65252 | 23.38766 | 26007 ft | 225 kts | 339° |
| 2026-04-28 17:23 | 39.66720 | 23.38051 | 26007 ft | 225 kts | 339° |
| 2026-04-28 17:23 | 39.68188 | 23.37336 | 26007 ft | 225 kts | 339° |
| 2026-04-28 17:23 | 39.69657 | 23.36620 | 26007 ft | 225 kts | 339° |
| 2026-04-28 17:24 | 39.71122 | 23.35906 | 26006 ft | 225 kts | 339° |
| 2026-04-28 17:24 | 39.72593 | 23.35189 | 26006 ft | 225 kts | 339° |
| 2026-04-28 17:24 | 39.74056 | 23.34475 | 26006 ft | 225 kts | 339° |
| 2026-04-28 17:24 | 39.75524 | 23.33758 | 26006 ft | 225 kts | 339° |
| 2026-04-28 17:25 | 39.76990 | 23.33041 | 26006 ft | 225 kts | 339° |
| 2026-04-28 17:25 | 39.79908 | 23.31613 | 26006 ft | 225 kts | 339° |
| 2026-04-28 17:25 | 39.81377 | 23.30894 | 26006 ft | 225 kts | 339° |
| 2026-04-28 17:26 | 39.82846 | 23.30175 | 26005 ft | 225 kts | 339° |
| 2026-04-28 17:26 | 39.84309 | 23.29458 | 26005 ft | 225 kts | 339° |
| 2026-04-28 17:26 | 39.85774 | 23.28740 | 26006 ft | 225 kts | 339° |
| 2026-04-28 17:26 | 39.87245 | 23.28018 | 26006 ft | 225 kts | 339° |
| 2026-04-28 17:27 | 39.88710 | 23.27299 | 26006 ft | 225 kts | 338° |
| 2026-04-28 17:27 | 39.90177 | 23.26579 | 26006 ft | 226 kts | 338° |
| 2026-04-28 17:27 | 39.91650 | 23.25856 | 26006 ft | 226 kts | 338° |
| 2026-04-28 17:27 | 39.93127 | 23.25130 | 26006 ft | 226 kts | 339° |
| 2026-04-28 17:28 | 39.94598 | 23.24408 | 26006 ft | 226 kts | 339° |
| 2026-04-28 17:28 | 39.97534 | 23.22964 | 26006 ft | 227 kts | 338° |
| 2026-04-28 17:28 | 39.99033 | 23.22227 | 26007 ft | 227 kts | 338° |
| 2026-04-28 17:29 | 40.00490 | 23.21510 | 26006 ft | 227 kts | 338° |
| 2026-04-28 17:29 | 40.01965 | 23.20783 | 26007 ft | 227 kts | 338° |
| 2026-04-28 17:29 | 40.03444 | 23.20054 | 26007 ft | 227 kts | 338° |
| 2026-04-28 17:30 | 40.06399 | 23.18597 | 26007 ft | 227 kts | 338° |
| 2026-04-28 17:30 | 40.09353 | 23.17140 | 26007 ft | 227 kts | 338° |
| 2026-04-28 17:30 | 40.10833 | 23.16409 | 26006 ft | 227 kts | 338° |
| 2026-04-28 17:31 | 40.12313 | 23.15677 | 26006 ft | 227 kts | 338° |
| 2026-04-28 17:31 | 40.15268 | 23.14216 | 26007 ft | 227 kts | 338° |
| 2026-04-28 17:32 | 40.18205 | 23.12763 | 26006 ft | 227 kts | 338° |
| 2026-04-28 17:32 | 40.19685 | 23.12030 | 26006 ft | 227 kts | 338° |
| 2026-04-28 17:32 | 40.21163 | 23.11298 | 26006 ft | 227 kts | 338° |
| 2026-04-28 17:32 | 40.22639 | 23.10566 | 26006 ft | 227 kts | 338° |
| 2026-04-28 17:33 | 40.24115 | 23.09834 | 26005 ft | 227 kts | 338° |
| 2026-04-28 17:33 | 40.25593 | 23.09101 | 26005 ft | 227 kts | 338° |
| 2026-04-28 17:33 | 40.27071 | 23.08367 | 26006 ft | 227 kts | 338° |
| 2026-04-28 17:33 | 40.27568 | 23.08121 | 26005 ft | 227 kts | 338° |
| 2026-04-28 17:34 | 40.30024 | 23.06901 | 26006 ft | 227 kts | 338° |
| 2026-04-28 17:34 | 40.31500 | 23.06167 | 26006 ft | 227 kts | 338° |
| 2026-04-28 17:34 | 40.32979 | 23.05431 | 26006 ft | 227 kts | 338° |
| 2026-04-28 17:34 | 40.34444 | 23.04703 | 26006 ft | 228 kts | 338° |
| 2026-04-28 17:35 | 40.35922 | 23.03967 | 26006 ft | 227 kts | 338° |
| 2026-04-28 17:35 | 40.37403 | 23.03230 | 26006 ft | 228 kts | 338° |
| 2026-04-28 17:35 | 40.38887 | 23.02490 | 26006 ft | 228 kts | 338° |
| 2026-04-28 17:35 | 40.40365 | 23.01754 | 26007 ft | 228 kts | 338° |
| 2026-04-28 17:36 | 40.41845 | 23.01015 | 26007 ft | 228 kts | 338° |
| 2026-04-28 17:36 | 40.43326 | 23.00276 | 26007 ft | 228 kts | 338° |
| 2026-04-28 17:36 | 40.44810 | 22.99536 | 26007 ft | 228 kts | 338° |
| 2026-04-28 17:36 | 40.46262 | 22.98709 | 26010 ft | 226 kts | 331° |
| 2026-04-28 17:37 | 40.47646 | 22.97730 | 26008 ft | 226 kts | 330° |
| 2026-04-28 17:37 | 40.49023 | 22.96763 | 26008 ft | 227 kts | 331° |
| 2026-04-28 17:37 | 40.49964 | 22.96109 | 26008 ft | 227 kts | 331° |
| 2026-04-28 17:37 | 40.51360 | 22.95137 | 26008 ft | 227 kts | 331° |
| 2026-04-28 17:38 | 40.52752 | 22.94163 | 26008 ft | 227 kts | 331° |
| 2026-04-28 17:38 | 40.54595 | 22.92874 | 26009 ft | 227 kts | 331° |
| 2026-04-28 17:38 | 40.55542 | 22.92211 | 26008 ft | 227 kts | 331° |
| 2026-04-28 17:38 | 40.56916 | 22.91250 | 26008 ft | 227 kts | 331° |
| 2026-04-28 17:39 | 40.58305 | 22.90277 | 26007 ft | 227 kts | 331° |
| 2026-04-28 17:39 | 40.59706 | 22.89295 | 26008 ft | 227 kts | 331° |
| 2026-04-28 17:39 | 40.62491 | 22.87342 | 26008 ft | 227 kts | 331° |
| 2026-04-28 17:40 | 40.63888 | 22.86363 | 26008 ft | 227 kts | 331° |
| 2026-04-28 17:40 | 40.65279 | 22.85386 | 26008 ft | 227 kts | 331° |
| 2026-04-28 17:40 | 40.66672 | 22.84408 | 26008 ft | 227 kts | 331° |
| 2026-04-28 17:40 | 40.68068 | 22.83427 | 26008 ft | 227 kts | 331° |
| 2026-04-28 17:41 | 40.69469 | 22.82443 | 26009 ft | 227 kts | 331° |
| 2026-04-28 17:41 | 40.70864 | 22.81462 | 26009 ft | 227 kts | 331° |
| 2026-04-28 17:41 | 40.72259 | 22.80480 | 26008 ft | 227 kts | 331° |
| 2026-04-28 17:41 | 40.73653 | 22.79498 | 26008 ft | 227 kts | 331° |
| 2026-04-28 17:42 | 40.75051 | 22.78514 | 26008 ft | 227 kts | 331° |
| 2026-04-28 17:42 | 40.76444 | 22.77532 | 26008 ft | 227 kts | 331° |
| 2026-04-28 17:42 | 40.77841 | 22.76547 | 26008 ft | 227 kts | 331° |
| 2026-04-28 17:42 | 40.79221 | 22.75574 | 26007 ft | 227 kts | 331° |
| 2026-04-28 17:43 | 40.80622 | 22.74586 | 26008 ft | 227 kts | 331° |
| 2026-04-28 17:43 | 40.82015 | 22.73602 | 26007 ft | 227 kts | 331° |
| 2026-04-28 17:43 | 40.83411 | 22.72616 | 26008 ft | 227 kts | 331° |
| 2026-04-28 17:43 | 40.84794 | 22.71639 | 26185 ft | 219 kts | 331° |
| 2026-04-28 17:44 | 40.86085 | 22.70727 | 26542 ft | 203 kts | 331° |
| 2026-04-28 17:44 | 40.87290 | 22.69873 | 26900 ft | 189 kts | 331° |
| 2026-04-28 17:44 | 40.88405 | 22.69084 | 27257 ft | 176 kts | 331° |
| 2026-04-28 17:44 | 40.89450 | 22.68344 | 27550 ft | 167 kts | 331° |
| 2026-04-28 17:45 | 40.90453 | 22.67633 | 27790 ft | 160 kts | 331° |
| 2026-04-28 17:45 | 40.91414 | 22.66953 | 27995 ft | 156 kts | 331° |
| 2026-04-28 17:45 | 40.92405 | 22.66250 | 28000 ft | 166 kts | 331° |
| 2026-04-28 17:45 | 40.93456 | 22.65506 | 28013 ft | 176 kts | 331° |
| 2026-04-28 17:46 | 40.94548 | 22.64734 | 28012 ft | 183 kts | 331° |
| 2026-04-28 17:46 | 40.95690 | 22.63925 | 28005 ft | 191 kts | 331° |
| 2026-04-28 17:46 | 40.96886 | 22.63077 | 28009 ft | 197 kts | 331° |
| 2026-04-28 17:46 | 40.98110 | 22.62209 | 28001 ft | 203 kts | 331° |
| 2026-04-28 17:47 | 40.99365 | 22.61318 | 28007 ft | 207 kts | 331° |
| 2026-04-28 17:47 | 41.00647 | 22.60408 | 28005 ft | 211 kts | 331° |
| 2026-04-28 17:47 | 41.01951 | 22.59482 | 28010 ft | 214 kts | 331° |
| 2026-04-28 17:47 | 41.02826 | 22.58860 | 28006 ft | 216 kts | 331° |
| 2026-04-28 17:48 | 41.04609 | 22.57591 | 28007 ft | 219 kts | 331° |
| 2026-04-28 17:48 | 41.05949 | 22.56638 | 28007 ft | 220 kts | 331° |
| 2026-04-28 17:48 | 41.07308 | 22.55670 | 28014 ft | 221 kts | 331° |
| 2026-04-28 17:48 | 41.08662 | 22.54705 | 28011 ft | 222 kts | 331° |
| 2026-04-28 17:49 | 41.10016 | 22.53740 | 28000 ft | 223 kts | 331° |
| 2026-04-28 17:49 | 41.11403 | 22.52751 | 28006 ft | 224 kts | 331° |
| 2026-04-28 17:49 | 41.12774 | 22.51816 | 28001 ft | 224 kts | 338° |
| 2026-04-28 17:49 | 41.14290 | 22.51345 | 28012 ft | 224 kts | 349° |
| 2026-04-28 17:50 | 41.15832 | 22.50999 | 28005 ft | 225 kts | 349° |
| 2026-04-28 17:50 | 41.17372 | 22.50645 | 28002 ft | 225 kts | 349° |
| 2026-04-28 17:50 | 41.18921 | 22.50290 | 28004 ft | 225 kts | 349° |
| 2026-04-28 17:50 | 41.20472 | 22.49936 | 28002 ft | 226 kts | 349° |
| 2026-04-28 17:51 | 41.22019 | 22.49583 | 28004 ft | 226 kts | 349° |
| 2026-04-28 17:51 | 41.23566 | 22.49229 | 28006 ft | 226 kts | 349° |
| 2026-04-28 17:51 | 41.25115 | 22.48875 | 28000 ft | 226 kts | 349° |
| 2026-04-28 17:51 | 41.26646 | 22.48524 | 28002 ft | 226 kts | 349° |
| 2026-04-28 17:52 | 41.28207 | 22.48167 | 28003 ft | 226 kts | 349° |
| 2026-04-28 17:52 | 41.29754 | 22.47812 | 28003 ft | 226 kts | 349° |
| 2026-04-28 17:52 | 41.32863 | 22.47100 | 28003 ft | 226 kts | 349° |
| 2026-04-28 17:53 | 41.34412 | 22.46744 | 28006 ft | 226 kts | 349° |
| 2026-04-28 17:53 | 41.35969 | 22.46387 | 28007 ft | 226 kts | 349° |
| 2026-04-28 17:53 | 41.37523 | 22.46030 | 28009 ft | 227 kts | 349° |
| 2026-04-28 17:53 | 41.39076 | 22.45673 | 28011 ft | 227 kts | 349° |
| 2026-04-28 17:54 | 41.40637 | 22.45314 | 28004 ft | 228 kts | 349° |
| 2026-04-28 17:54 | 41.42197 | 22.44955 | 28003 ft | 228 kts | 349° |
| 2026-04-28 17:54 | 41.43738 | 22.44600 | 28000 ft | 228 kts | 349° |
| 2026-04-28 17:54 | 41.45302 | 22.44240 | 27999 ft | 228 kts | 349° |
| 2026-04-28 17:55 | 41.46870 | 22.43879 | 27997 ft | 228 kts | 349° |
| 2026-04-28 17:55 | 41.48428 | 22.43520 | 27998 ft | 227 kts | 349° |
| 2026-04-28 17:55 | 41.49990 | 22.43160 | 28003 ft | 227 kts | 349° |
| 2026-04-28 17:55 | 41.51546 | 22.42801 | 28000 ft | 227 kts | 349° |
| 2026-04-28 17:56 | 41.53104 | 22.42442 | 28001 ft | 227 kts | 349° |
| 2026-04-28 17:56 | 41.54665 | 22.42081 | 27998 ft | 227 kts | 349° |
| 2026-04-28 17:56 | 41.56209 | 22.41724 | 27996 ft | 227 kts | 349° |
| 2026-04-28 17:56 | 41.57786 | 22.41360 | 28000 ft | 227 kts | 349° |
| 2026-04-28 17:57 | 41.59327 | 22.41007 | 28003 ft | 227 kts | 350° |
| 2026-04-28 17:57 | 41.60856 | 22.41154 | 27958 ft | 225 kts | 35° |
| 2026-04-28 17:57 | 41.62268 | 22.41968 | 28024 ft | 217 kts | 9° |
| 2026-04-28 17:57 | 41.63761 | 22.41850 | 28013 ft | 218 kts | 340° |
| 2026-04-28 17:58 | 41.65044 | 22.40801 | 28040 ft | 216 kts | 314° |
| 2026-04-28 17:58 | 41.66232 | 22.39586 | 28039 ft | 218 kts | 332° |
| 2026-04-28 17:58 | 41.67680 | 22.38943 | 28042 ft | 220 kts | 349° |
| 2026-04-28 17:58 | 41.69196 | 22.38663 | 28045 ft | 222 kts | 352° |
| 2026-04-28 17:59 | 41.70728 | 22.38375 | 28045 ft | 223 kts | 350° |
| 2026-04-28 17:59 | 41.72261 | 22.38017 | 28046 ft | 224 kts | 349° |
| 2026-04-28 17:59 | 41.73801 | 22.37646 | 28046 ft | 224 kts | 349° |
| 2026-04-28 17:59 | 41.75325 | 22.37290 | 28047 ft | 225 kts | 349° |
| 2026-04-28 18:00 | 41.76872 | 22.36933 | 28048 ft | 226 kts | 349° |
| 2026-04-28 18:00 | 41.78430 | 22.36570 | 28047 ft | 226 kts | 349° |
| 2026-04-28 18:00 | 41.79737 | 22.36266 | 28048 ft | 226 kts | 349° |
| 2026-04-28 18:00 | 41.81272 | 22.35909 | 28047 ft | 227 kts | 349° |
| 2026-04-28 18:01 | 41.82843 | 22.35543 | 28048 ft | 227 kts | 349° |
| 2026-04-28 18:01 | 41.84400 | 22.35180 | 28047 ft | 227 kts | 349° |
| 2026-04-28 18:01 | 41.85955 | 22.34818 | 28048 ft | 227 kts | 349° |
| 2026-04-28 18:01 | 41.87490 | 22.34459 | 28048 ft | 227 kts | 349° |
| 2026-04-28 18:02 | 41.89044 | 22.34097 | 28047 ft | 227 kts | 349° |
| 2026-04-28 18:02 | 41.90599 | 22.33734 | 28048 ft | 227 kts | 349° |
| 2026-04-28 18:02 | 41.92162 | 22.33368 | 28046 ft | 227 kts | 349° |
| 2026-04-28 18:02 | 41.93721 | 22.33004 | 28047 ft | 227 kts | 349° |
| 2026-04-28 18:03 | 41.95275 | 22.32640 | 28047 ft | 227 kts | 349° |
| 2026-04-28 18:03 | 41.96834 | 22.32275 | 28049 ft | 227 kts | 349° |
| 2026-04-28 18:03 | 41.98396 | 22.31910 | 28048 ft | 228 kts | 349° |
| 2026-04-28 18:03 | 41.99960 | 22.31543 | 28049 ft | 227 kts | 349° |
| 2026-04-28 18:04 | 42.01519 | 22.31178 | 28048 ft | 228 kts | 349° |
| 2026-04-28 18:04 | 42.03078 | 22.30812 | 28047 ft | 227 kts | 349° |
| 2026-04-28 18:04 | 42.04642 | 22.30445 | 28047 ft | 228 kts | 349° |
| 2026-04-28 18:04 | 42.06182 | 22.30084 | 28048 ft | 228 kts | 349° |
| 2026-04-28 18:05 | 42.07735 | 22.29719 | 28048 ft | 227 kts | 349° |
| 2026-04-28 18:05 | 42.08794 | 22.29470 | 28047 ft | 227 kts | 349° |
| 2026-04-28 18:05 | 42.10864 | 22.28984 | 28047 ft | 227 kts | 349° |
| 2026-04-28 18:05 | 42.12424 | 22.28617 | 28047 ft | 227 kts | 349° |
| 2026-04-28 18:06 | 42.13982 | 22.28250 | 28047 ft | 227 kts | 349° |
| 2026-04-28 18:06 | 42.15519 | 22.27888 | 28047 ft | 227 kts | 349° |
| 2026-04-28 18:06 | 42.17075 | 22.27522 | 28047 ft | 227 kts | 349° |
| 2026-04-28 18:06 | 42.18640 | 22.27153 | 28047 ft | 227 kts | 349° |
| 2026-04-28 18:07 | 42.20194 | 22.26787 | 28047 ft | 227 kts | 349° |
| 2026-04-28 18:07 | 42.21748 | 22.26420 | 28047 ft | 227 kts | 349° |
| 2026-04-28 18:07 | 42.23301 | 22.26053 | 28046 ft | 227 kts | 349° |
| 2026-04-28 18:07 | 42.24854 | 22.25687 | 28046 ft | 226 kts | 349° |
| 2026-04-28 18:08 | 42.26403 | 22.25321 | 28046 ft | 226 kts | 349° |
| 2026-04-28 18:08 | 42.27954 | 22.24954 | 28047 ft | 226 kts | 349° |
| 2026-04-28 18:08 | 42.29513 | 22.24586 | 28047 ft | 226 kts | 349° |
| 2026-04-28 18:08 | 42.31047 | 22.24162 | 28049 ft | 225 kts | 340° |
| 2026-04-28 18:09 | 42.32506 | 22.23402 | 28054 ft | 224 kts | 338° |
| 2026-04-28 18:09 | 42.33963 | 22.22638 | 28054 ft | 225 kts | 338° |
| 2026-04-28 18:09 | 42.35423 | 22.21884 | 28053 ft | 225 kts | 338° |
| 2026-04-28 18:09 | 42.36888 | 22.21124 | 28054 ft | 225 kts | 338° |
| 2026-04-28 18:10 | 42.38352 | 22.20361 | 28053 ft | 225 kts | 338° |
| 2026-04-28 18:10 | 42.39799 | 22.19607 | 28054 ft | 225 kts | 338° |
| 2026-04-28 18:10 | 42.41259 | 22.18845 | 28053 ft | 225 kts | 338° |
| 2026-04-28 18:10 | 42.42715 | 22.18086 | 28053 ft | 225 kts | 338° |
| 2026-04-28 18:11 | 42.44185 | 22.17318 | 28054 ft | 225 kts | 338° |
| 2026-04-28 18:11 | 42.45647 | 22.16555 | 28053 ft | 225 kts | 338° |
| 2026-04-28 18:11 | 42.47110 | 22.15791 | 28056 ft | 225 kts | 338° |
| 2026-04-28 18:11 | 42.48574 | 22.15026 | 28053 ft | 226 kts | 338° |
| 2026-04-28 18:12 | 42.50041 | 22.14258 | 28054 ft | 226 kts | 338° |
| 2026-04-28 18:12 | 42.51506 | 22.13492 | 28054 ft | 226 kts | 338° |
| 2026-04-28 18:12 | 42.52974 | 22.12724 | 28055 ft | 226 kts | 338° |
| 2026-04-28 18:12 | 42.54440 | 22.11956 | 28055 ft | 226 kts | 338° |
| 2026-04-28 18:13 | 42.55909 | 22.11187 | 28054 ft | 226 kts | 338° |
| 2026-04-28 18:13 | 42.57373 | 22.10419 | 28054 ft | 226 kts | 338° |
| 2026-04-28 18:13 | 42.58844 | 22.09647 | 28055 ft | 226 kts | 338° |
| 2026-04-28 18:13 | 42.60311 | 22.08878 | 28052 ft | 226 kts | 338° |
| 2026-04-28 18:14 | 42.61767 | 22.08113 | 28052 ft | 226 kts | 338° |
| 2026-04-28 18:14 | 42.63240 | 22.07339 | 28053 ft | 226 kts | 338° |
| 2026-04-28 18:14 | 42.64689 | 22.06578 | 28052 ft | 225 kts | 338° |
| 2026-04-28 18:14 | 42.66148 | 22.05810 | 28054 ft | 225 kts | 338° |
| 2026-04-28 18:15 | 42.67615 | 22.05039 | 28054 ft | 225 kts | 338° |
| 2026-04-28 18:15 | 42.69082 | 22.04266 | 28052 ft | 225 kts | 338° |
| 2026-04-28 18:15 | 42.70542 | 22.03497 | 28054 ft | 225 kts | 338° |
| 2026-04-28 18:15 | 42.72001 | 22.02729 | 28053 ft | 225 kts | 338° |
| 2026-04-28 18:16 | 42.73459 | 22.01960 | 28052 ft | 225 kts | 338° |
| 2026-04-28 18:16 | 42.74921 | 22.01189 | 28053 ft | 225 kts | 338° |
| 2026-04-28 18:16 | 42.76388 | 22.00414 | 28053 ft | 225 kts | 338° |
| 2026-04-28 18:16 | 42.77831 | 21.99653 | 28053 ft | 225 kts | 338° |
| 2026-04-28 18:17 | 42.79289 | 21.98882 | 28051 ft | 225 kts | 338° |
| 2026-04-28 18:17 | 42.80750 | 21.98111 | 28053 ft | 225 kts | 338° |
| 2026-04-28 18:17 | 42.82207 | 21.97340 | 28051 ft | 225 kts | 338° |
| 2026-04-28 18:17 | 42.83667 | 21.96567 | 28053 ft | 225 kts | 338° |
| 2026-04-28 18:18 | 42.85132 | 21.95792 | 28052 ft | 225 kts | 338° |
| 2026-04-28 18:18 | 42.86586 | 21.95022 | 28053 ft | 225 kts | 338° |
| 2026-04-28 18:18 | 42.88048 | 21.94247 | 28052 ft | 225 kts | 338° |
| 2026-04-28 18:18 | 42.89015 | 21.93735 | 28053 ft | 225 kts | 338° |
| 2026-04-28 18:19 | 42.90963 | 21.92702 | 28051 ft | 225 kts | 338° |
| 2026-04-28 18:19 | 42.92423 | 21.91927 | 28051 ft | 225 kts | 338° |
| 2026-04-28 18:19 | 42.93888 | 21.91149 | 28051 ft | 225 kts | 338° |
| 2026-04-28 18:19 | 42.95344 | 21.90376 | 28051 ft | 225 kts | 338° |
| 2026-04-28 18:20 | 42.96803 | 21.89600 | 28053 ft | 225 kts | 338° |
| 2026-04-28 18:20 | 42.98241 | 21.88835 | 28052 ft | 225 kts | 338° |
| 2026-04-28 18:20 | 42.99701 | 21.88058 | 28051 ft | 225 kts | 338° |
| 2026-04-28 18:20 | 43.01163 | 21.87280 | 28052 ft | 225 kts | 338° |
| 2026-04-28 18:21 | 43.02627 | 21.86501 | 28052 ft | 225 kts | 338° |
| 2026-04-28 18:21 | 43.04078 | 21.85728 | 28051 ft | 225 kts | 338° |
| 2026-04-28 18:21 | 43.05539 | 21.84949 | 28052 ft | 225 kts | 338° |
| 2026-04-28 18:21 | 43.06987 | 21.84176 | 28053 ft | 225 kts | 338° |
| 2026-04-28 18:22 | 43.08458 | 21.83391 | 28052 ft | 225 kts | 338° |
| 2026-04-28 18:22 | 43.09919 | 21.82611 | 28052 ft | 225 kts | 338° |
| 2026-04-28 18:22 | 43.11380 | 21.81831 | 28051 ft | 225 kts | 338° |
| 2026-04-28 18:22 | 43.12816 | 21.81063 | 28050 ft | 225 kts | 338° |
| 2026-04-28 18:23 | 43.14292 | 21.80274 | 28052 ft | 225 kts | 338° |
| 2026-04-28 18:23 | 43.15748 | 21.79495 | 28052 ft | 225 kts | 338° |
| 2026-04-28 18:23 | 43.17190 | 21.78723 | 28215 ft | 224 kts | 335° |
| 2026-04-28 18:23 | 43.18621 | 21.77959 | 28228 ft | 219 kts | 334° |
| 2026-04-28 18:24 | 43.20031 | 21.77203 | 28226 ft | 216 kts | 334° |
| 2026-04-28 18:24 | 43.20500 | 21.76952 | 28227 ft | 215 kts | 334° |
| 2026-04-28 18:24 | 43.22336 | 21.75966 | 28221 ft | 212 kts | 334° |
| 2026-04-28 18:24 | 43.24160 | 21.74988 | 28223 ft | 210 kts | 334° |
| 2026-04-28 18:25 | 43.25519 | 21.74258 | 28218 ft | 209 kts | 334° |
| 2026-04-28 18:25 | 43.26409 | 21.73780 | 28221 ft | 208 kts | 334° |
| 2026-04-28 18:25 | 43.27760 | 21.73054 | 28219 ft | 207 kts | 334° |
| 2026-04-28 18:26 | 43.30436 | 21.71615 | 28219 ft | 206 kts | 334° |
| 2026-04-28 18:26 | 43.31766 | 21.70899 | 28221 ft | 205 kts | 334° |
| 2026-04-28 18:26 | 43.33093 | 21.70185 | 28223 ft | 205 kts | 334° |
| 2026-04-28 18:26 | 43.34404 | 21.69479 | 28223 ft | 204 kts | 334° |
| 2026-04-28 18:27 | 43.35729 | 21.68765 | 28225 ft | 204 kts | 334° |
| 2026-04-28 18:27 | 43.37053 | 21.68051 | 28227 ft | 204 kts | 334° |
| 2026-04-28 18:27 | 43.38374 | 21.67338 | 28225 ft | 204 kts | 334° |
| 2026-04-28 18:27 | 43.39697 | 21.66625 | 28232 ft | 204 kts | 334° |
| 2026-04-28 18:28 | 43.41018 | 21.65912 | 28231 ft | 204 kts | 334° |
| 2026-04-28 18:28 | 43.42337 | 21.65199 | 28230 ft | 204 kts | 334° |
| 2026-04-28 18:28 | 43.43655 | 21.64487 | 28232 ft | 204 kts | 334° |
| 2026-04-28 18:28 | 43.44979 | 21.63772 | 28234 ft | 204 kts | 334° |
| 2026-04-28 18:29 | 43.46304 | 21.63055 | 28212 ft | 205 kts | 334° |
| 2026-04-28 18:29 | 43.47637 | 21.62333 | 28149 ft | 207 kts | 334° |
| 2026-04-28 18:29 | 43.48992 | 21.61599 | 28058 ft | 210 kts | 334° |
| 2026-04-28 18:29 | 43.50333 | 21.60874 | 28059 ft | 209 kts | 334° |
| 2026-04-28 18:30 | 43.51683 | 21.60143 | 28065 ft | 208 kts | 334° |
| 2026-04-28 18:30 | 43.52574 | 21.59660 | 28061 ft | 207 kts | 334° |
| 2026-04-28 18:30 | 43.54359 | 21.58691 | 28062 ft | 206 kts | 334° |
| 2026-04-28 18:30 | 43.55695 | 21.57966 | 28067 ft | 205 kts | 334° |
| 2026-04-28 18:31 | 43.57024 | 21.57244 | 28068 ft | 205 kts | 335° |
| 2026-04-28 18:31 | 43.58345 | 21.56528 | 28073 ft | 204 kts | 335° |
| 2026-04-28 18:31 | 43.59669 | 21.55808 | 28075 ft | 204 kts | 335° |
| 2026-04-28 18:31 | 43.60987 | 21.55091 | 28076 ft | 203 kts | 335° |
| 2026-04-28 18:32 | 43.62297 | 21.54378 | 28077 ft | 203 kts | 335° |
| 2026-04-28 18:32 | 43.63612 | 21.53663 | 28073 ft | 202 kts | 335° |
| 2026-04-28 18:32 | 43.64923 | 21.52949 | 28074 ft | 202 kts | 335° |
| 2026-04-28 18:32 | 43.66224 | 21.52241 | 28074 ft | 201 kts | 335° |
| 2026-04-28 18:33 | 43.67527 | 21.51530 | 28077 ft | 201 kts | 335° |
| 2026-04-28 18:33 | 43.68808 | 21.50831 | 28077 ft | 201 kts | 335° |
| 2026-04-28 18:33 | 43.70125 | 21.50113 | 28074 ft | 201 kts | 335° |
| 2026-04-28 18:33 | 43.71413 | 21.49410 | 28076 ft | 201 kts | 335° |
| 2026-04-28 18:34 | 43.72717 | 21.48698 | 28078 ft | 201 kts | 335° |
| 2026-04-28 18:34 | 43.74018 | 21.47988 | 28077 ft | 202 kts | 335° |
| 2026-04-28 18:34 | 43.75324 | 21.47274 | 28081 ft | 202 kts | 335° |
| 2026-04-28 18:34 | 43.76632 | 21.46559 | 28082 ft | 202 kts | 335° |
| 2026-04-28 18:35 | 43.77938 | 21.45844 | 28082 ft | 202 kts | 335° |
| 2026-04-28 18:35 | 43.79244 | 21.45129 | 28081 ft | 202 kts | 335° |
| 2026-04-28 18:35 | 43.80551 | 21.44414 | 28082 ft | 202 kts | 335° |
| 2026-04-28 18:35 | 43.81859 | 21.43697 | 28082 ft | 202 kts | 335° |
| 2026-04-28 18:36 | 43.83164 | 21.42982 | 28084 ft | 202 kts | 335° |
| 2026-04-28 18:36 | 43.84453 | 21.42275 | 28085 ft | 202 kts | 335° |
| 2026-04-28 18:36 | 43.85754 | 21.41562 | 28083 ft | 201 kts | 335° |
| 2026-04-28 18:36 | 43.87057 | 21.40847 | 28086 ft | 201 kts | 336° |
| 2026-04-28 18:37 | 43.88362 | 21.40130 | 28089 ft | 201 kts | 336° |
| 2026-04-28 18:37 | 43.89669 | 21.39412 | 28088 ft | 201 kts | 336° |
| 2026-04-28 18:37 | 43.90968 | 21.38698 | 28089 ft | 201 kts | 336° |
| 2026-04-28 18:37 | 43.92261 | 21.37987 | 28087 ft | 201 kts | 336° |
| 2026-04-28 18:38 | 43.93565 | 21.37270 | 28088 ft | 200 kts | 336° |